DAL905 KISP-KLAX
Flight info
| Callsign | DAL905 |
|---|---|
| Flight time | 5h 41m |
| Altitude | 32000 |
| Route | COATE Q436 HERBA JHW DJB CPONE/N0455F340 JOT LMN PWE HLC J64 RSK/N0454F360 J64 TBC JASSE Q90 DNERO ANJLL4 |
| Aircraft | B738/M-SDE2E3FGHIRWXY/LB1 |
Departure
| Time | 2026-04-22 09:03 |
|---|---|
| Airport | Long Island MacArthur Airport (KISP) |
Arrival
| Time | 2026-04-22 14:44 |
|---|---|
| Airport | Los Angeles International Airport (KLAX) |
| Time | Latitude | Longitude | Altitude | Speed | Heading |
|---|---|---|---|---|---|
| 2026-04-22 08:49 | 40.79042 | -73.09570 | 82 ft | 0 kts | 180° |
| 2026-04-22 08:57 | 40.79043 | -73.09570 | 82 ft | 1 kts | 180° |
| 2026-04-22 08:58 | 40.79057 | -73.09570 | 83 ft | 2 kts | 180° |
| 2026-04-22 08:58 | 40.79073 | -73.09570 | 83 ft | 2 kts | 180° |
| 2026-04-22 08:58 | 40.79084 | -73.09570 | 83 ft | 0 kts | 180° |
| 2026-04-22 08:58 | 40.79097 | -73.09574 | 83 ft | 2 kts | 137° |
| 2026-04-22 08:59 | 40.79103 | -73.09589 | 83 ft | 0 kts | 95° |
| 2026-04-22 08:59 | 40.79103 | -73.09597 | 83 ft | 1 kts | 88° |
| 2026-04-22 08:59 | 40.79103 | -73.09600 | 83 ft | 0 kts | 90° |
| 2026-04-22 09:01 | 40.79103 | -73.09598 | 83 ft | 0 kts | 90° |
| 2026-04-22 09:01 | 40.79103 | -73.09591 | 83 ft | 1 kts | 90° |
| 2026-04-22 09:01 | 40.79103 | -73.09584 | 83 ft | 1 kts | 90° |
| 2026-04-22 09:01 | 40.79103 | -73.09579 | 83 ft | 1 kts | 86° |
| 2026-04-22 09:02 | 40.79109 | -73.09556 | 83 ft | 6 kts | 52° |
| 2026-04-22 09:02 | 40.79165 | -73.09491 | 82 ft | 14 kts | 37° |
| 2026-04-22 09:02 | 40.79259 | -73.09488 | 83 ft | 19 kts | 324° |
| 2026-04-22 09:02 | 40.79568 | -73.09876 | 90 ft | 105 kts | 314° |
| 2026-04-22 09:03 | 40.80264 | -73.10798 | 154 ft | 172 kts | 314° |
| 2026-04-22 09:03 | 40.80977 | -73.12005 | 1180 ft | 159 kts | 290° |
| 2026-04-22 09:03 | 40.81204 | -73.13284 | 2103 ft | 150 kts | 267° |
| 2026-04-22 09:03 | 40.80787 | -73.14586 | 2428 ft | 164 kts | 214° |
| 2026-04-22 09:04 | 40.79685 | -73.14901 | 2925 ft | 175 kts | 165° |
| 2026-04-22 09:04 | 40.78715 | -73.13872 | 3462 ft | 191 kts | 124° |
| 2026-04-22 09:04 | 40.78040 | -73.12360 | 4097 ft | 197 kts | 132° |
| 2026-04-22 09:04 | 40.76871 | -73.11443 | 4692 ft | 204 kts | 175° |
| 2026-04-22 09:05 | 40.75561 | -73.11924 | 5667 ft | 204 kts | 219° |
| 2026-04-22 09:05 | 40.74904 | -73.13321 | 6575 ft | 208 kts | 255° |
| 2026-04-22 09:05 | 40.75017 | -73.14956 | 7299 ft | 221 kts | 290° |
| 2026-04-22 09:05 | 40.76347 | -73.16774 | 8389 ft | 232 kts | 321° |
| 2026-04-22 09:06 | 40.77641 | -73.18169 | 9177 ft | 233 kts | 302° |
| 2026-04-22 09:06 | 40.78461 | -73.19904 | 10048 ft | 226 kts | 290° |
| 2026-04-22 09:06 | 40.79081 | -73.21795 | 10556 ft | 242 kts | 284° |
| 2026-04-22 09:06 | 40.79665 | -73.23987 | 10897 ft | 266 kts | 283° |
| 2026-04-22 09:07 | 40.80268 | -73.26379 | 11260 ft | 290 kts | 283° |
| 2026-04-22 09:07 | 40.80909 | -73.29002 | 11521 ft | 315 kts | 283° |
| 2026-04-22 09:07 | 40.81594 | -73.31824 | 11834 ft | 338 kts | 283° |
| 2026-04-22 09:07 | 40.82316 | -73.34817 | 12052 ft | 360 kts | 283° |
| 2026-04-22 09:08 | 40.83088 | -73.38018 | 12547 ft | 373 kts | 283° |
| 2026-04-22 09:08 | 40.83876 | -73.41290 | 13201 ft | 380 kts | 283° |
| 2026-04-22 09:08 | 40.84678 | -73.44624 | 13983 ft | 383 kts | 283° |
| 2026-04-22 09:08 | 40.85471 | -73.47938 | 14683 ft | 387 kts | 283° |
| 2026-04-22 09:09 | 40.86281 | -73.51325 | 15400 ft | 390 kts | 283° |
| 2026-04-22 09:09 | 40.87090 | -73.54718 | 16068 ft | 394 kts | 282° |
| 2026-04-22 09:09 | 40.87637 | -73.57013 | 16504 ft | 396 kts | 282° |
| 2026-04-22 09:09 | 40.88739 | -73.61648 | 17348 ft | 401 kts | 282° |
| 2026-04-22 09:10 | 40.89557 | -73.65095 | 17942 ft | 405 kts | 282° |
| 2026-04-22 09:10 | 40.90265 | -73.68078 | 18466 ft | 407 kts | 281° |
| 2026-04-22 09:10 | 40.91048 | -73.71384 | 18986 ft | 411 kts | 281° |
| 2026-04-22 09:10 | 40.91896 | -73.74972 | 19548 ft | 414 kts | 281° |
| 2026-04-22 09:11 | 40.92458 | -73.77345 | 19895 ft | 417 kts | 281° |
| 2026-04-22 09:11 | 40.94147 | -73.84482 | 20905 ft | 423 kts | 281° |
| 2026-04-22 09:11 | 40.95172 | -73.88833 | 21494 ft | 427 kts | 281° |
| 2026-04-22 09:12 | 40.95786 | -73.91441 | 21849 ft | 429 kts | 281° |
| 2026-04-22 09:12 | 40.96578 | -73.94813 | 22238 ft | 432 kts | 281° |
| 2026-04-22 09:12 | 40.97529 | -73.98871 | 22751 ft | 435 kts | 281° |
| 2026-04-22 09:12 | 40.98339 | -74.02326 | 23151 ft | 437 kts | 281° |
| 2026-04-22 09:13 | 41.00036 | -74.09597 | 23943 ft | 443 kts | 280° |
| 2026-04-22 09:13 | 41.00961 | -74.13564 | 24354 ft | 446 kts | 280° |
| 2026-04-22 09:14 | 41.02844 | -74.21668 | 25140 ft | 451 kts | 280° |
| 2026-04-22 09:14 | 41.03860 | -74.26050 | 25552 ft | 454 kts | 280° |
| 2026-04-22 09:14 | 41.04817 | -74.30179 | 25913 ft | 457 kts | 280° |
| 2026-04-22 09:14 | 41.05752 | -74.34223 | 26290 ft | 458 kts | 280° |
| 2026-04-22 09:15 | 41.06634 | -74.38042 | 26767 ft | 456 kts | 279° |
| 2026-04-22 09:15 | 41.07565 | -74.42079 | 27224 ft | 456 kts | 279° |
| 2026-04-22 09:15 | 41.08488 | -74.46098 | 27741 ft | 453 kts | 279° |
| 2026-04-22 09:15 | 41.09391 | -74.50032 | 28192 ft | 452 kts | 279° |
| 2026-04-22 09:16 | 41.10280 | -74.53925 | 28573 ft | 453 kts | 279° |
| 2026-04-22 09:16 | 41.11103 | -74.57536 | 28940 ft | 452 kts | 279° |
| 2026-04-22 09:16 | 41.12071 | -74.61784 | 29354 ft | 451 kts | 278° |
| 2026-04-22 09:16 | 41.12897 | -74.65658 | 29827 ft | 447 kts | 277° |
| 2026-04-22 09:17 | 41.13833 | -74.69509 | 30118 ft | 456 kts | 283° |
| 2026-04-22 09:17 | 41.15291 | -74.73350 | 30505 ft | 465 kts | 291° |
| 2026-04-22 09:17 | 41.16943 | -74.77023 | 31000 ft | 463 kts | 291° |
| 2026-04-22 09:17 | 41.18567 | -74.80710 | 31206 ft | 465 kts | 290° |
| 2026-04-22 09:18 | 41.20135 | -74.84363 | 31624 ft | 462 kts | 290° |
| 2026-04-22 09:18 | 41.21730 | -74.88072 | 31954 ft | 463 kts | 290° |
| 2026-04-22 09:18 | 41.23318 | -74.91752 | 32183 ft | 462 kts | 290° |
| 2026-04-22 09:19 | 41.26527 | -74.99175 | 32174 ft | 463 kts | 290° |
| 2026-04-22 09:19 | 41.29722 | -75.06583 | 32154 ft | 463 kts | 289° |
| 2026-04-22 09:20 | 41.32890 | -75.13936 | 32136 ft | 462 kts | 289° |
| 2026-04-22 09:20 | 41.36068 | -75.21335 | 32137 ft | 462 kts | 289° |
| 2026-04-22 09:21 | 41.39246 | -75.28747 | 32136 ft | 462 kts | 289° |
| 2026-04-22 09:21 | 41.42437 | -75.36208 | 32137 ft | 462 kts | 289° |
| 2026-04-22 09:22 | 41.45599 | -75.43619 | 32134 ft | 462 kts | 289° |
| 2026-04-22 09:22 | 41.48398 | -75.51154 | 32132 ft | 450 kts | 281° |
| 2026-04-22 09:23 | 41.50600 | -75.58935 | 32128 ft | 450 kts | 281° |
| 2026-04-22 09:23 | 41.52817 | -75.66557 | 32128 ft | 449 kts | 280° |
| 2026-04-22 09:24 | 41.55059 | -75.74355 | 32128 ft | 449 kts | 280° |
| 2026-04-22 09:24 | 41.57283 | -75.82131 | 32128 ft | 448 kts | 280° |
| 2026-04-22 09:25 | 41.59489 | -75.89875 | 32128 ft | 448 kts | 280° |
| 2026-04-22 09:25 | 41.61674 | -75.97579 | 32125 ft | 449 kts | 280° |
| 2026-04-22 09:26 | 41.63873 | -76.05354 | 32115 ft | 448 kts | 280° |
| 2026-04-22 09:26 | 41.66052 | -76.13083 | 32101 ft | 447 kts | 280° |
| 2026-04-22 09:27 | 41.68230 | -76.20837 | 32091 ft | 448 kts | 280° |
| 2026-04-22 09:27 | 41.70396 | -76.28576 | 32081 ft | 448 kts | 280° |
| 2026-04-22 09:28 | 41.72532 | -76.36222 | 32070 ft | 448 kts | 280° |
| 2026-04-22 09:28 | 41.74690 | -76.43971 | 32056 ft | 448 kts | 280° |
| 2026-04-22 09:29 | 41.76848 | -76.51750 | 32047 ft | 447 kts | 280° |
| 2026-04-22 09:29 | 41.79001 | -76.59529 | 32046 ft | 448 kts | 280° |
| 2026-04-22 09:30 | 41.81116 | -76.67188 | 32045 ft | 447 kts | 279° |
| 2026-04-22 09:30 | 41.83250 | -76.74942 | 32046 ft | 447 kts | 279° |
| 2026-04-22 09:31 | 41.85345 | -76.82581 | 32045 ft | 447 kts | 279° |
| 2026-04-22 09:31 | 41.87348 | -76.89903 | 32045 ft | 447 kts | 279° |
| 2026-04-22 09:32 | 41.89547 | -76.97972 | 32045 ft | 445 kts | 279° |
| 2026-04-22 09:32 | 41.91650 | -77.05743 | 32045 ft | 445 kts | 279° |
| 2026-04-22 09:33 | 41.93752 | -77.13532 | 32045 ft | 445 kts | 279° |
| 2026-04-22 09:33 | 41.95853 | -77.21334 | 32045 ft | 443 kts | 279° |
| 2026-04-22 09:34 | 41.97939 | -77.29114 | 32045 ft | 444 kts | 279° |
| 2026-04-22 09:34 | 42.00032 | -77.36939 | 32042 ft | 444 kts | 279° |
| 2026-04-22 09:35 | 42.03199 | -77.48679 | 32037 ft | 444 kts | 279° |
| 2026-04-22 09:35 | 42.05316 | -77.56437 | 32035 ft | 444 kts | 279° |
| 2026-04-22 09:36 | 42.07431 | -77.64243 | 32036 ft | 445 kts | 279° |
| 2026-04-22 09:36 | 42.09536 | -77.72028 | 32036 ft | 444 kts | 279° |
| 2026-04-22 09:37 | 42.11629 | -77.79796 | 32036 ft | 443 kts | 279° |
| 2026-04-22 09:37 | 42.13672 | -77.87405 | 32036 ft | 443 kts | 279° |
| 2026-04-22 09:38 | 42.15802 | -77.95364 | 32035 ft | 443 kts | 279° |
| 2026-04-22 09:38 | 42.17872 | -78.03124 | 32034 ft | 443 kts | 279° |
| 2026-04-22 09:39 | 42.19939 | -78.10896 | 32028 ft | 442 kts | 279° |
| 2026-04-22 09:39 | 42.22012 | -78.18720 | 32023 ft | 442 kts | 279° |
| 2026-04-22 09:40 | 42.23735 | -78.26562 | 32018 ft | 429 kts | 269° |
| 2026-04-22 09:40 | 42.24017 | -78.30548 | 32017 ft | 416 kts | 260° |
| 2026-04-22 09:40 | 42.23857 | -78.34378 | 32020 ft | 408 kts | 255° |
| 2026-04-22 09:41 | 42.23362 | -78.41957 | 32018 ft | 410 kts | 256° |
| 2026-04-22 09:41 | 42.22926 | -78.49606 | 32017 ft | 409 kts | 256° |
| 2026-04-22 09:42 | 42.22458 | -78.57181 | 32018 ft | 409 kts | 256° |
| 2026-04-22 09:42 | 42.21978 | -78.64848 | 32019 ft | 409 kts | 256° |
| 2026-04-22 09:43 | 42.21490 | -78.72473 | 32018 ft | 409 kts | 255° |
| 2026-04-22 09:43 | 42.20993 | -78.80128 | 32013 ft | 410 kts | 255° |
| 2026-04-22 09:44 | 42.20496 | -78.87738 | 32006 ft | 410 kts | 255° |
| 2026-04-22 09:44 | 42.20026 | -78.94836 | 32001 ft | 411 kts | 255° |
| 2026-04-22 09:45 | 42.19505 | -79.02612 | 31998 ft | 411 kts | 256° |
| 2026-04-22 09:45 | 42.18893 | -79.10235 | 32001 ft | 408 kts | 253° |
| 2026-04-22 09:46 | 42.17355 | -79.17526 | 32000 ft | 402 kts | 245° |
| 2026-04-22 09:46 | 42.15541 | -79.24674 | 32002 ft | 405 kts | 247° |
| 2026-04-22 09:47 | 42.13775 | -79.31810 | 32000 ft | 406 kts | 246° |
| 2026-04-22 09:47 | 42.11903 | -79.39005 | 31998 ft | 407 kts | 246° |
| 2026-04-22 09:48 | 42.10048 | -79.46214 | 32000 ft | 408 kts | 246° |
| 2026-04-22 09:48 | 42.08190 | -79.53395 | 31998 ft | 408 kts | 246° |
| 2026-04-22 09:49 | 42.06272 | -79.60638 | 31999 ft | 409 kts | 246° |
| 2026-04-22 09:49 | 42.04395 | -79.67828 | 31997 ft | 410 kts | 246° |
| 2026-04-22 09:50 | 42.02520 | -79.75058 | 31994 ft | 411 kts | 246° |
| 2026-04-22 09:50 | 42.00617 | -79.82341 | 31984 ft | 411 kts | 245° |
| 2026-04-22 09:51 | 41.98700 | -79.89590 | 31975 ft | 411 kts | 245° |
| 2026-04-22 09:51 | 41.96753 | -79.96832 | 31972 ft | 411 kts | 245° |
| 2026-04-22 09:52 | 41.94809 | -80.04112 | 31973 ft | 411 kts | 245° |
| 2026-04-22 09:52 | 41.92899 | -80.11344 | 31970 ft | 412 kts | 246° |
| 2026-04-22 09:53 | 41.90983 | -80.18539 | 31973 ft | 411 kts | 246° |
| 2026-04-22 09:53 | 41.89055 | -80.25743 | 31977 ft | 412 kts | 245° |
| 2026-04-22 09:54 | 41.87091 | -80.32949 | 31982 ft | 412 kts | 245° |
| 2026-04-22 09:54 | 41.85122 | -80.40208 | 31988 ft | 413 kts | 246° |
| 2026-04-22 09:55 | 41.83173 | -80.47423 | 31988 ft | 413 kts | 246° |
| 2026-04-22 09:55 | 41.81215 | -80.54649 | 31989 ft | 413 kts | 245° |
| 2026-04-22 09:56 | 41.79262 | -80.61835 | 31993 ft | 413 kts | 245° |
| 2026-04-22 09:56 | 41.77276 | -80.69044 | 31991 ft | 413 kts | 245° |
| 2026-04-22 09:57 | 41.75275 | -80.76285 | 31990 ft | 413 kts | 245° |
| 2026-04-22 09:57 | 41.73287 | -80.83491 | 31989 ft | 414 kts | 245° |
| 2026-04-22 09:58 | 41.71304 | -80.90735 | 31991 ft | 413 kts | 246° |
| 2026-04-22 09:58 | 41.69342 | -80.97951 | 31992 ft | 412 kts | 246° |
| 2026-04-22 09:59 | 41.67326 | -81.05050 | 31992 ft | 411 kts | 246° |
| 2026-04-22 09:59 | 41.65328 | -81.12219 | 31989 ft | 410 kts | 247° |
| 2026-04-22 10:00 | 41.63390 | -81.19394 | 31990 ft | 410 kts | 248° |
| 2026-04-22 10:00 | 41.61400 | -81.26571 | 31992 ft | 409 kts | 246° |
| 2026-04-22 10:01 | 41.59349 | -81.33674 | 31990 ft | 408 kts | 246° |
| 2026-04-22 10:01 | 41.57339 | -81.40734 | 31996 ft | 408 kts | 247° |
| 2026-04-22 10:02 | 41.55342 | -81.47842 | 32000 ft | 409 kts | 247° |
| 2026-04-22 10:02 | 41.53441 | -81.54703 | 32000 ft | 408 kts | 248° |
| 2026-04-22 10:03 | 41.51480 | -81.61718 | 32002 ft | 407 kts | 247° |
| 2026-04-22 10:03 | 41.49462 | -81.68705 | 31993 ft | 407 kts | 246° |
| 2026-04-22 10:04 | 41.47406 | -81.75731 | 31992 ft | 408 kts | 246° |
| 2026-04-22 10:04 | 41.45423 | -81.82806 | 31993 ft | 409 kts | 247° |
| 2026-04-22 10:05 | 41.43410 | -81.89923 | 31992 ft | 409 kts | 246° |
| 2026-04-22 10:05 | 41.41365 | -81.96961 | 32000 ft | 408 kts | 246° |
| 2026-04-22 10:06 | 41.39316 | -82.04049 | 32008 ft | 408 kts | 247° |
| 2026-04-22 10:06 | 41.37307 | -82.11114 | 32007 ft | 408 kts | 248° |
| 2026-04-22 10:07 | 41.36085 | -82.18478 | 32009 ft | 415 kts | 264° |
| 2026-04-22 10:07 | 41.36462 | -82.26176 | 32008 ft | 419 kts | 270° |
| 2026-04-22 10:08 | 41.36966 | -82.33924 | 32007 ft | 419 kts | 270° |
| 2026-04-22 10:08 | 41.37372 | -82.41671 | 32005 ft | 418 kts | 269° |
| 2026-04-22 10:09 | 41.37707 | -82.49353 | 32002 ft | 418 kts | 269° |
| 2026-04-22 10:09 | 41.38082 | -82.57140 | 31997 ft | 419 kts | 269° |
| 2026-04-22 10:10 | 41.38551 | -82.64826 | 31996 ft | 419 kts | 270° |
| 2026-04-22 10:10 | 41.39029 | -82.72565 | 31992 ft | 419 kts | 269° |
| 2026-04-22 10:11 | 41.39407 | -82.80331 | 31992 ft | 419 kts | 268° |
| 2026-04-22 10:11 | 41.39788 | -82.88021 | 31992 ft | 417 kts | 270° |
| 2026-04-22 10:12 | 41.40211 | -82.95692 | 31992 ft | 413 kts | 271° |
| 2026-04-22 10:12 | 41.40605 | -83.03263 | 31990 ft | 409 kts | 271° |
| 2026-04-22 10:13 | 41.41011 | -83.10819 | 31994 ft | 408 kts | 272° |
| 2026-04-22 10:13 | 41.41490 | -83.18310 | 31995 ft | 408 kts | 272° |
| 2026-04-22 10:14 | 41.41862 | -83.25822 | 31997 ft | 407 kts | 271° |
| 2026-04-22 10:14 | 41.42222 | -83.33366 | 31999 ft | 407 kts | 272° |
| 2026-04-22 10:15 | 41.42667 | -83.40852 | 32000 ft | 407 kts | 272° |
| 2026-04-22 10:15 | 41.43032 | -83.48389 | 32000 ft | 406 kts | 271° |
| 2026-04-22 10:16 | 41.43337 | -83.55891 | 31999 ft | 406 kts | 271° |
| 2026-04-22 10:16 | 41.43696 | -83.63426 | 32000 ft | 406 kts | 272° |
| 2026-04-22 10:17 | 41.44112 | -83.70962 | 32000 ft | 406 kts | 271° |
| 2026-04-22 10:17 | 41.44437 | -83.78501 | 32000 ft | 406 kts | 270° |
| 2026-04-22 10:18 | 41.44702 | -83.85995 | 32000 ft | 406 kts | 270° |
| 2026-04-22 10:18 | 41.45061 | -83.93494 | 31997 ft | 407 kts | 271° |
| 2026-04-22 10:19 | 41.45432 | -84.01008 | 32000 ft | 406 kts | 270° |
| 2026-04-22 10:19 | 41.45707 | -84.08533 | 31997 ft | 406 kts | 271° |
| 2026-04-22 10:20 | 41.46003 | -84.15995 | 31999 ft | 406 kts | 271° |
| 2026-04-22 10:20 | 41.46303 | -84.23517 | 32000 ft | 406 kts | 271° |
| 2026-04-22 10:21 | 41.46617 | -84.31024 | 32000 ft | 405 kts | 271° |
| 2026-04-22 10:21 | 41.46923 | -84.38537 | 32004 ft | 405 kts | 270° |
| 2026-04-22 10:22 | 41.47231 | -84.45991 | 32008 ft | 405 kts | 271° |
| 2026-04-22 10:22 | 41.47540 | -84.53513 | 32009 ft | 405 kts | 271° |
| 2026-04-22 10:23 | 41.47815 | -84.60950 | 32009 ft | 405 kts | 271° |
| 2026-04-22 10:23 | 41.48183 | -84.68451 | 32008 ft | 405 kts | 271° |
| 2026-04-22 10:24 | 41.48504 | -84.75964 | 32007 ft | 405 kts | 270° |
| 2026-04-22 10:24 | 41.48732 | -84.83429 | 32005 ft | 405 kts | 270° |
| 2026-04-22 10:25 | 41.48994 | -84.90958 | 32001 ft | 406 kts | 271° |
| 2026-04-22 10:25 | 41.49326 | -84.98436 | 32002 ft | 405 kts | 271° |
| 2026-04-22 10:26 | 41.49623 | -85.05927 | 31996 ft | 400 kts | 270° |
| 2026-04-22 10:26 | 41.49832 | -85.13263 | 32000 ft | 393 kts | 270° |
| 2026-04-22 10:27 | 41.50025 | -85.20515 | 32000 ft | 389 kts | 271° |
| 2026-04-22 10:27 | 41.50243 | -85.27683 | 31999 ft | 388 kts | 271° |
| 2026-04-22 10:28 | 41.50477 | -85.34839 | 31996 ft | 387 kts | 271° |
| 2026-04-22 10:28 | 41.50703 | -85.42031 | 31994 ft | 387 kts | 271° |
| 2026-04-22 10:29 | 41.50912 | -85.49181 | 31994 ft | 387 kts | 271° |
| 2026-04-22 10:29 | 41.51192 | -85.56313 | 31992 ft | 386 kts | 272° |
| 2026-04-22 10:30 | 41.51438 | -85.63509 | 31991 ft | 386 kts | 271° |
| 2026-04-22 10:30 | 41.51604 | -85.70617 | 31990 ft | 386 kts | 270° |
| 2026-04-22 10:31 | 41.51767 | -85.77800 | 31991 ft | 387 kts | 270° |
| 2026-04-22 10:31 | 41.51965 | -85.84950 | 31990 ft | 387 kts | 271° |
| 2026-04-22 10:32 | 41.52150 | -85.92123 | 31990 ft | 387 kts | 271° |
| 2026-04-22 10:32 | 41.52344 | -85.99319 | 31991 ft | 387 kts | 271° |
| 2026-04-22 10:33 | 41.52521 | -86.06480 | 31993 ft | 387 kts | 270° |
| 2026-04-22 10:33 | 41.52663 | -86.13641 | 31994 ft | 387 kts | 271° |
| 2026-04-22 10:34 | 41.52844 | -86.20786 | 31995 ft | 387 kts | 271° |
| 2026-04-22 10:34 | 41.53008 | -86.27967 | 31996 ft | 386 kts | 270° |
| 2026-04-22 10:35 | 41.53138 | -86.35090 | 31998 ft | 386 kts | 271° |
| 2026-04-22 10:35 | 41.53258 | -86.42245 | 31999 ft | 386 kts | 270° |
| 2026-04-22 10:36 | 41.53371 | -86.49416 | 31996 ft | 385 kts | 270° |
| 2026-04-22 10:36 | 41.53497 | -86.56525 | 31992 ft | 385 kts | 270° |
| 2026-04-22 10:37 | 41.53652 | -86.67265 | 31991 ft | 385 kts | 270° |
| 2026-04-22 10:38 | 41.53743 | -86.74396 | 31994 ft | 386 kts | 270° |
| 2026-04-22 10:38 | 41.53834 | -86.81541 | 31996 ft | 386 kts | 270° |
| 2026-04-22 10:39 | 41.53910 | -86.88729 | 31999 ft | 386 kts | 270° |
| 2026-04-22 10:39 | 41.53993 | -86.95870 | 32000 ft | 385 kts | 270° |
| 2026-04-22 10:40 | 41.54073 | -87.02998 | 32000 ft | 382 kts | 270° |
| 2026-04-22 10:40 | 41.54145 | -87.10039 | 32000 ft | 379 kts | 270° |
| 2026-04-22 10:41 | 41.54212 | -87.17089 | 31998 ft | 378 kts | 270° |
| 2026-04-22 10:41 | 41.54270 | -87.24100 | 31990 ft | 377 kts | 270° |
| 2026-04-22 10:42 | 41.54317 | -87.31087 | 31986 ft | 377 kts | 270° |
| 2026-04-22 10:42 | 41.54380 | -87.38087 | 31981 ft | 377 kts | 271° |
| 2026-04-22 10:43 | 41.54456 | -87.45112 | 31985 ft | 376 kts | 271° |
| 2026-04-22 10:43 | 41.54494 | -87.52100 | 31987 ft | 375 kts | 270° |
| 2026-04-22 10:44 | 41.54489 | -87.59041 | 32009 ft | 375 kts | 269° |
| 2026-04-22 10:44 | 41.54492 | -87.65946 | 32006 ft | 375 kts | 269° |
| 2026-04-22 10:45 | 41.54551 | -87.72942 | 32000 ft | 376 kts | 269° |
| 2026-04-22 10:45 | 41.54592 | -87.79883 | 31994 ft | 376 kts | 269° |
| 2026-04-22 10:46 | 41.54638 | -87.86870 | 31993 ft | 377 kts | 269° |
| 2026-04-22 10:46 | 41.54662 | -87.93925 | 31997 ft | 377 kts | 269° |
| 2026-04-22 10:47 | 41.54636 | -88.00882 | 32002 ft | 377 kts | 268° |
| 2026-04-22 10:47 | 41.54617 | -88.07892 | 32008 ft | 377 kts | 269° |
| 2026-04-22 10:48 | 41.54629 | -88.14875 | 32009 ft | 377 kts | 269° |
| 2026-04-22 10:48 | 41.54666 | -88.21873 | 32009 ft | 376 kts | 269° |
| 2026-04-22 10:49 | 41.54661 | -88.28836 | 32009 ft | 376 kts | 268° |
| 2026-04-22 10:49 | 41.53996 | -88.35732 | 32006 ft | 376 kts | 259° |
| 2026-04-22 10:50 | 41.53032 | -88.42617 | 31998 ft | 376 kts | 261° |
| 2026-04-22 10:50 | 41.52121 | -88.49458 | 31989 ft | 375 kts | 261° |
| 2026-04-22 10:51 | 41.51125 | -88.56288 | 31982 ft | 375 kts | 260° |
| 2026-04-22 10:51 | 41.50136 | -88.63087 | 31988 ft | 375 kts | 260° |
| 2026-04-22 10:52 | 41.49155 | -88.69914 | 31995 ft | 375 kts | 260° |
| 2026-04-22 10:52 | 41.48173 | -88.76768 | 32003 ft | 375 kts | 260° |
| 2026-04-22 10:53 | 41.47176 | -88.83601 | 32007 ft | 376 kts | 260° |
| 2026-04-22 10:53 | 41.46184 | -88.90426 | 32007 ft | 376 kts | 261° |
| 2026-04-22 10:54 | 41.45193 | -88.97297 | 32009 ft | 376 kts | 261° |
| 2026-04-22 10:54 | 41.44183 | -89.04150 | 32008 ft | 376 kts | 262° |
| 2026-04-22 10:55 | 41.43178 | -89.10951 | 32009 ft | 376 kts | 262° |
| 2026-04-22 10:55 | 41.42157 | -89.17821 | 32009 ft | 376 kts | 261° |
| 2026-04-22 10:56 | 41.41141 | -89.24609 | 32009 ft | 376 kts | 261° |
| 2026-04-22 10:56 | 41.40122 | -89.31422 | 32008 ft | 376 kts | 261° |
| 2026-04-22 10:57 | 41.39088 | -89.38270 | 32003 ft | 376 kts | 261° |
| 2026-04-22 10:57 | 41.38050 | -89.45050 | 32001 ft | 375 kts | 261° |
| 2026-04-22 10:58 | 41.37020 | -89.51859 | 31999 ft | 375 kts | 262° |
| 2026-04-22 10:58 | 41.35979 | -89.58662 | 31998 ft | 375 kts | 261° |
| 2026-04-22 10:59 | 41.34907 | -89.65440 | 31996 ft | 375 kts | 261° |
| 2026-04-22 10:59 | 41.33863 | -89.72216 | 31993 ft | 375 kts | 261° |
| 2026-04-22 11:00 | 41.32826 | -89.79028 | 31990 ft | 376 kts | 261° |
| 2026-04-22 11:00 | 41.31759 | -89.85850 | 31989 ft | 377 kts | 261° |
| 2026-04-22 11:01 | 41.30677 | -89.92621 | 31985 ft | 377 kts | 261° |
| 2026-04-22 11:01 | 41.29605 | -89.99458 | 31982 ft | 377 kts | 261° |
| 2026-04-22 11:02 | 41.28567 | -90.06246 | 31982 ft | 377 kts | 261° |
| 2026-04-22 11:02 | 41.27493 | -90.13088 | 31983 ft | 377 kts | 261° |
| 2026-04-22 11:03 | 41.26404 | -90.19893 | 31987 ft | 377 kts | 261° |
| 2026-04-22 11:03 | 41.25307 | -90.26661 | 31991 ft | 376 kts | 261° |
| 2026-04-22 11:04 | 41.24226 | -90.33443 | 31996 ft | 376 kts | 261° |
| 2026-04-22 11:04 | 41.23151 | -90.40237 | 31999 ft | 375 kts | 261° |
| 2026-04-22 11:05 | 41.22065 | -90.46995 | 32004 ft | 375 kts | 261° |
| 2026-04-22 11:05 | 41.20974 | -90.53735 | 32009 ft | 375 kts | 261° |
| 2026-04-22 11:06 | 41.19853 | -90.60510 | 32015 ft | 374 kts | 261° |
| 2026-04-22 11:06 | 41.18748 | -90.67233 | 32017 ft | 374 kts | 261° |
| 2026-04-22 11:07 | 41.17662 | -90.74014 | 32023 ft | 375 kts | 261° |
| 2026-04-22 11:07 | 41.16555 | -90.80756 | 32027 ft | 376 kts | 260° |
| 2026-04-22 11:08 | 41.15417 | -90.87533 | 32029 ft | 376 kts | 261° |
| 2026-04-22 11:08 | 41.14288 | -90.94266 | 32029 ft | 376 kts | 260° |
| 2026-04-22 11:09 | 41.13159 | -91.01043 | 32028 ft | 376 kts | 261° |
| 2026-04-22 11:09 | 41.12018 | -91.07837 | 32027 ft | 376 kts | 261° |
| 2026-04-22 11:10 | 41.10894 | -91.14623 | 32027 ft | 376 kts | 261° |
| 2026-04-22 11:10 | 41.09779 | -91.21382 | 32027 ft | 376 kts | 261° |
| 2026-04-22 11:11 | 41.08620 | -91.28140 | 32030 ft | 376 kts | 261° |
| 2026-04-22 11:11 | 41.07471 | -91.34894 | 32032 ft | 376 kts | 262° |
| 2026-04-22 11:12 | 41.06347 | -91.41615 | 32034 ft | 375 kts | 261° |
| 2026-04-22 11:12 | 41.05199 | -91.48366 | 32034 ft | 375 kts | 261° |
| 2026-04-22 11:13 | 41.04035 | -91.55053 | 32031 ft | 375 kts | 261° |
| 2026-04-22 11:13 | 41.02860 | -91.61786 | 32027 ft | 374 kts | 262° |
| 2026-04-22 11:14 | 41.01714 | -91.68469 | 32026 ft | 374 kts | 261° |
| 2026-04-22 11:14 | 41.00551 | -91.75189 | 32028 ft | 375 kts | 261° |
| 2026-04-22 11:15 | 40.99381 | -91.81902 | 32029 ft | 375 kts | 261° |
| 2026-04-22 11:15 | 40.98208 | -91.88622 | 32028 ft | 375 kts | 261° |
| 2026-04-22 11:16 | 40.97026 | -91.95358 | 32027 ft | 375 kts | 261° |
| 2026-04-22 11:16 | 40.95847 | -92.02056 | 32027 ft | 375 kts | 261° |
| 2026-04-22 11:17 | 40.94656 | -92.08800 | 32027 ft | 375 kts | 261° |
| 2026-04-22 11:17 | 40.93467 | -92.15502 | 32027 ft | 375 kts | 261° |
| 2026-04-22 11:18 | 40.92275 | -92.22203 | 32025 ft | 375 kts | 261° |
| 2026-04-22 11:18 | 40.91079 | -92.28898 | 32023 ft | 374 kts | 261° |
| 2026-04-22 11:19 | 40.89881 | -92.35580 | 32019 ft | 374 kts | 261° |
| 2026-04-22 11:19 | 40.88685 | -92.42228 | 32019 ft | 373 kts | 261° |
| 2026-04-22 11:20 | 40.87487 | -92.48857 | 32024 ft | 372 kts | 261° |
| 2026-04-22 11:20 | 40.86276 | -92.55540 | 32031 ft | 372 kts | 261° |
| 2026-04-22 11:21 | 40.85075 | -92.62147 | 32039 ft | 371 kts | 261° |
| 2026-04-22 11:21 | 40.83870 | -92.68751 | 32047 ft | 371 kts | 261° |
| 2026-04-22 11:22 | 40.82655 | -92.75391 | 32051 ft | 371 kts | 261° |
| 2026-04-22 11:22 | 40.81438 | -92.82015 | 32054 ft | 372 kts | 261° |
| 2026-04-22 11:23 | 40.80213 | -92.88658 | 32055 ft | 372 kts | 261° |
| 2026-04-22 11:23 | 40.78989 | -92.95271 | 32054 ft | 372 kts | 261° |
| 2026-04-22 11:24 | 40.77761 | -93.01884 | 32055 ft | 373 kts | 262° |
| 2026-04-22 11:24 | 40.76517 | -93.08559 | 32054 ft | 373 kts | 262° |
| 2026-04-22 11:25 | 40.75282 | -93.15166 | 32053 ft | 374 kts | 262° |
| 2026-04-22 11:25 | 40.74031 | -93.21836 | 32048 ft | 374 kts | 262° |
| 2026-04-22 11:26 | 40.72777 | -93.28495 | 32043 ft | 374 kts | 262° |
| 2026-04-22 11:26 | 40.71524 | -93.35126 | 32038 ft | 374 kts | 262° |
| 2026-04-22 11:27 | 40.70267 | -93.41760 | 32037 ft | 374 kts | 262° |
| 2026-04-22 11:27 | 40.69003 | -93.48404 | 32039 ft | 374 kts | 262° |
| 2026-04-22 11:28 | 40.67735 | -93.55050 | 32041 ft | 374 kts | 262° |
| 2026-04-22 11:28 | 40.66466 | -93.61674 | 32044 ft | 373 kts | 262° |
| 2026-04-22 11:29 | 40.65197 | -93.68284 | 32045 ft | 374 kts | 262° |
| 2026-04-22 11:29 | 40.63921 | -93.74907 | 32045 ft | 375 kts | 262° |
| 2026-04-22 11:30 | 40.62632 | -93.81570 | 32046 ft | 375 kts | 262° |
| 2026-04-22 11:30 | 40.61342 | -93.88217 | 32045 ft | 376 kts | 261° |
| 2026-04-22 11:31 | 40.60052 | -93.94830 | 32045 ft | 376 kts | 262° |
| 2026-04-22 11:31 | 40.58847 | -94.01540 | 32045 ft | 375 kts | 264° |
| 2026-04-22 11:32 | 40.57755 | -94.08245 | 32044 ft | 375 kts | 263° |
| 2026-04-22 11:32 | 40.56630 | -94.14933 | 32043 ft | 375 kts | 263° |
| 2026-04-22 11:33 | 40.55515 | -94.21583 | 32040 ft | 375 kts | 263° |
| 2026-04-22 11:33 | 40.54381 | -94.28291 | 32039 ft | 375 kts | 263° |
| 2026-04-22 11:34 | 40.53246 | -94.34975 | 32038 ft | 375 kts | 263° |
| 2026-04-22 11:34 | 40.52111 | -94.41640 | 32038 ft | 375 kts | 263° |
| 2026-04-22 11:35 | 40.50967 | -94.48331 | 32037 ft | 374 kts | 263° |
| 2026-04-22 11:35 | 40.49822 | -94.55001 | 32035 ft | 374 kts | 263° |
| 2026-04-22 11:36 | 40.48677 | -94.61640 | 32036 ft | 374 kts | 263° |
| 2026-04-22 11:36 | 40.47528 | -94.68284 | 32036 ft | 374 kts | 263° |
| 2026-04-22 11:37 | 40.46376 | -94.74926 | 32036 ft | 375 kts | 263° |
| 2026-04-22 11:37 | 40.45211 | -94.81615 | 32036 ft | 375 kts | 263° |
| 2026-04-22 11:38 | 40.44053 | -94.88268 | 32036 ft | 376 kts | 264° |
| 2026-04-22 11:38 | 40.42308 | -94.98299 | 32035 ft | 377 kts | 264° |
| 2026-04-22 11:39 | 40.41137 | -95.05006 | 32036 ft | 379 kts | 265° |
| 2026-04-22 11:39 | 40.39954 | -95.11744 | 32031 ft | 379 kts | 265° |
| 2026-04-22 11:40 | 40.38758 | -95.18514 | 32031 ft | 380 kts | 265° |
| 2026-04-22 11:40 | 40.37566 | -95.25251 | 32028 ft | 381 kts | 265° |
| 2026-04-22 11:41 | 40.36358 | -95.32010 | 32027 ft | 381 kts | 265° |
| 2026-04-22 11:41 | 40.35142 | -95.38763 | 32027 ft | 382 kts | 264° |
| 2026-04-22 11:42 | 40.33864 | -95.45563 | 32028 ft | 382 kts | 264° |
| 2026-04-22 11:42 | 40.32607 | -95.52321 | 32026 ft | 382 kts | 264° |
| 2026-04-22 11:43 | 40.31365 | -95.59039 | 32028 ft | 382 kts | 265° |
| 2026-04-22 11:43 | 40.30127 | -95.65820 | 32034 ft | 382 kts | 263° |
| 2026-04-22 11:44 | 40.28900 | -95.72509 | 32036 ft | 382 kts | 263° |
| 2026-04-22 11:44 | 40.27652 | -95.79252 | 32034 ft | 382 kts | 264° |
| 2026-04-22 11:45 | 40.26436 | -95.86018 | 32033 ft | 382 kts | 264° |
| 2026-04-22 11:45 | 40.25225 | -95.92810 | 32033 ft | 382 kts | 264° |
| 2026-04-22 11:46 | 40.23988 | -95.99544 | 32032 ft | 383 kts | 263° |
| 2026-04-22 11:46 | 40.22726 | -96.06312 | 32031 ft | 382 kts | 263° |
| 2026-04-22 11:47 | 40.21480 | -96.13062 | 32032 ft | 382 kts | 264° |
| 2026-04-22 11:47 | 40.20207 | -96.19785 | 32034 ft | 382 kts | 263° |
| 2026-04-22 11:48 | 40.18798 | -96.26499 | 32032 ft | 384 kts | 262° |
| 2026-04-22 11:48 | 40.17320 | -96.33198 | 32027 ft | 383 kts | 262° |
| 2026-04-22 11:49 | 40.15889 | -96.39915 | 32018 ft | 383 kts | 262° |
| 2026-04-22 11:49 | 40.14465 | -96.46585 | 32014 ft | 382 kts | 262° |
| 2026-04-22 11:50 | 40.13023 | -96.53249 | 32013 ft | 382 kts | 262° |
| 2026-04-22 11:50 | 40.11566 | -96.59925 | 32015 ft | 382 kts | 262° |
| 2026-04-22 11:51 | 40.10117 | -96.66572 | 32018 ft | 381 kts | 261° |
| 2026-04-22 11:51 | 40.08672 | -96.73240 | 32021 ft | 382 kts | 262° |
| 2026-04-22 11:52 | 40.07181 | -96.79921 | 32024 ft | 383 kts | 261° |
| 2026-04-22 11:52 | 40.05688 | -96.86578 | 32026 ft | 383 kts | 262° |
| 2026-04-22 11:53 | 40.04213 | -96.93228 | 32028 ft | 384 kts | 261° |
| 2026-04-22 11:53 | 40.02723 | -96.99930 | 32026 ft | 384 kts | 261° |
| 2026-04-22 11:54 | 40.01230 | -97.06620 | 32020 ft | 385 kts | 262° |
| 2026-04-22 11:54 | 39.99715 | -97.13383 | 32011 ft | 388 kts | 262° |
| 2026-04-22 11:55 | 39.98238 | -97.20111 | 32001 ft | 390 kts | 263° |
| 2026-04-22 11:55 | 39.96771 | -97.26929 | 32002 ft | 393 kts | 263° |
| 2026-04-22 11:56 | 39.95231 | -97.33775 | 31999 ft | 396 kts | 262° |
| 2026-04-22 11:56 | 39.93631 | -97.40689 | 31998 ft | 398 kts | 262° |
| 2026-04-22 11:57 | 39.92039 | -97.47575 | 32002 ft | 399 kts | 262° |
| 2026-04-22 11:57 | 39.90490 | -97.54544 | 32001 ft | 400 kts | 263° |
| 2026-04-22 11:58 | 39.88965 | -97.61448 | 32002 ft | 400 kts | 263° |
| 2026-04-22 11:58 | 39.87428 | -97.68423 | 32007 ft | 400 kts | 262° |
| 2026-04-22 11:59 | 39.85813 | -97.75356 | 32006 ft | 402 kts | 261° |
| 2026-04-22 11:59 | 39.84151 | -97.82246 | 32009 ft | 403 kts | 261° |
| 2026-04-22 12:00 | 39.82475 | -97.89254 | 32009 ft | 403 kts | 262° |
| 2026-04-22 12:00 | 39.81228 | -97.94537 | 32005 ft | 404 kts | 262° |
| 2026-04-22 12:01 | 39.79658 | -98.01547 | 32008 ft | 403 kts | 263° |
| 2026-04-22 12:01 | 39.78105 | -98.08569 | 32009 ft | 403 kts | 262° |
| 2026-04-22 12:02 | 39.76521 | -98.15565 | 32010 ft | 404 kts | 262° |
| 2026-04-22 12:02 | 39.74916 | -98.22528 | 32002 ft | 404 kts | 262° |
| 2026-04-22 12:03 | 39.73254 | -98.29528 | 31999 ft | 405 kts | 261° |
| 2026-04-22 12:03 | 39.71606 | -98.36505 | 32000 ft | 405 kts | 262° |
| 2026-04-22 12:04 | 39.69971 | -98.43474 | 31997 ft | 405 kts | 262° |
| 2026-04-22 12:04 | 39.68309 | -98.50474 | 31988 ft | 405 kts | 262° |
| 2026-04-22 12:05 | 39.66644 | -98.57422 | 31980 ft | 405 kts | 262° |
| 2026-04-22 12:05 | 39.64996 | -98.64413 | 31968 ft | 405 kts | 262° |
| 2026-04-22 12:06 | 39.63359 | -98.71400 | 31966 ft | 406 kts | 261° |
| 2026-04-22 12:06 | 39.61634 | -98.78365 | 31963 ft | 408 kts | 260° |
| 2026-04-22 12:07 | 39.59843 | -98.85369 | 31965 ft | 407 kts | 261° |
| 2026-04-22 12:07 | 39.58189 | -98.92352 | 31961 ft | 407 kts | 262° |
| 2026-04-22 12:08 | 39.56685 | -98.98827 | 31904 ft | 410 kts | 261° |
| 2026-04-22 12:08 | 39.54988 | -99.05864 | 31881 ft | 412 kts | 261° |
| 2026-04-22 12:09 | 39.53272 | -99.12980 | 31794 ft | 416 kts | 260° |
| 2026-04-22 12:09 | 39.51498 | -99.20118 | 31788 ft | 418 kts | 259° |
| 2026-04-22 12:10 | 39.49686 | -99.27308 | 31715 ft | 421 kts | 260° |
| 2026-04-22 12:10 | 39.47919 | -99.34544 | 31683 ft | 422 kts | 261° |
| 2026-04-22 12:11 | 39.46172 | -99.41757 | 31649 ft | 424 kts | 260° |
| 2026-04-22 12:11 | 39.44372 | -99.49054 | 31668 ft | 424 kts | 260° |
| 2026-04-22 12:12 | 39.42550 | -99.56319 | 31624 ft | 425 kts | 260° |
| 2026-04-22 12:12 | 39.40723 | -99.63599 | 31611 ft | 425 kts | 260° |
| 2026-04-22 12:13 | 39.38909 | -99.70819 | 31657 ft | 425 kts | 259° |
| 2026-04-22 12:13 | 39.37075 | -99.78131 | 31593 ft | 427 kts | 259° |
| 2026-04-22 12:14 | 39.35250 | -99.85397 | 31614 ft | 427 kts | 259° |
| 2026-04-22 12:14 | 39.33408 | -99.92712 | 31634 ft | 427 kts | 259° |
| 2026-04-22 12:15 | 39.31575 | -99.99979 | 31640 ft | 427 kts | 259° |
| 2026-04-22 12:15 | 39.29733 | -100.07346 | 31606 ft | 427 kts | 259° |
| 2026-04-22 12:16 | 39.27914 | -100.14606 | 31638 ft | 427 kts | 259° |
| 2026-04-22 12:16 | 39.26062 | -100.21934 | 31467 ft | 431 kts | 259° |
| 2026-04-22 12:17 | 39.24428 | -100.29283 | 31583 ft | 424 kts | 263° |
| 2026-04-22 12:17 | 39.22951 | -100.36652 | 31565 ft | 425 kts | 263° |
| 2026-04-22 12:18 | 39.21414 | -100.44028 | 31527 ft | 426 kts | 263° |
| 2026-04-22 12:18 | 39.19870 | -100.51366 | 31553 ft | 425 kts | 263° |
| 2026-04-22 12:19 | 39.18338 | -100.58692 | 31511 ft | 426 kts | 262° |
| 2026-04-22 12:19 | 39.16746 | -100.66075 | 31518 ft | 426 kts | 261° |
| 2026-04-22 12:20 | 39.15151 | -100.73380 | 31520 ft | 426 kts | 262° |
| 2026-04-22 12:20 | 39.13565 | -100.80735 | 31520 ft | 426 kts | 262° |
| 2026-04-22 12:21 | 39.11983 | -100.88077 | 31517 ft | 427 kts | 262° |
| 2026-04-22 12:21 | 39.10422 | -100.95463 | 31517 ft | 428 kts | 261° |
| 2026-04-22 12:22 | 39.08860 | -101.02826 | 31517 ft | 429 kts | 261° |
| 2026-04-22 12:22 | 39.07218 | -101.10244 | 31517 ft | 431 kts | 260° |
| 2026-04-22 12:23 | 39.05583 | -101.17650 | 31514 ft | 432 kts | 260° |
| 2026-04-22 12:23 | 39.03953 | -101.25086 | 31511 ft | 433 kts | 260° |
| 2026-04-22 12:24 | 39.02322 | -101.32557 | 31510 ft | 433 kts | 260° |
| 2026-04-22 12:24 | 39.00722 | -101.39997 | 31503 ft | 433 kts | 261° |
| 2026-04-22 12:25 | 38.99086 | -101.47443 | 31498 ft | 433 kts | 260° |
| 2026-04-22 12:25 | 38.97409 | -101.54889 | 31492 ft | 432 kts | 260° |
| 2026-04-22 12:26 | 38.95764 | -101.62284 | 31494 ft | 431 kts | 260° |
| 2026-04-22 12:26 | 38.94140 | -101.69678 | 31493 ft | 430 kts | 259° |
| 2026-04-22 12:27 | 38.92506 | -101.77039 | 31492 ft | 429 kts | 259° |
| 2026-04-22 12:27 | 38.90851 | -101.84339 | 31496 ft | 427 kts | 259° |
| 2026-04-22 12:28 | 38.89199 | -101.91673 | 31504 ft | 425 kts | 259° |
| 2026-04-22 12:28 | 38.87591 | -101.98939 | 31508 ft | 422 kts | 259° |
| 2026-04-22 12:29 | 38.85952 | -102.06137 | 31509 ft | 421 kts | 258° |
| 2026-04-22 12:29 | 38.84285 | -102.13338 | 31510 ft | 419 kts | 259° |
| 2026-04-22 12:30 | 38.81827 | -102.24022 | 31510 ft | 417 kts | 259° |
| 2026-04-22 12:31 | 38.80190 | -102.31173 | 31511 ft | 416 kts | 259° |
| 2026-04-22 12:31 | 38.78581 | -102.38253 | 31511 ft | 415 kts | 259° |
| 2026-04-22 12:32 | 38.76979 | -102.45330 | 31511 ft | 414 kts | 259° |
| 2026-04-22 12:32 | 38.75462 | -102.51971 | 31507 ft | 414 kts | 259° |
| 2026-04-22 12:33 | 38.73832 | -102.59055 | 31499 ft | 413 kts | 259° |
| 2026-04-22 12:33 | 38.72198 | -102.66076 | 31492 ft | 413 kts | 258° |
| 2026-04-22 12:34 | 38.70566 | -102.73079 | 31484 ft | 414 kts | 258° |
| 2026-04-22 12:34 | 38.69018 | -102.79721 | 31483 ft | 414 kts | 258° |
| 2026-04-22 12:35 | 38.67366 | -102.86773 | 31483 ft | 414 kts | 258° |
| 2026-04-22 12:35 | 38.65705 | -102.93820 | 31483 ft | 414 kts | 258° |
| 2026-04-22 12:36 | 38.64040 | -103.00888 | 31486 ft | 414 kts | 258° |
| 2026-04-22 12:36 | 38.62369 | -103.07928 | 31492 ft | 414 kts | 258° |
| 2026-04-22 12:37 | 38.60702 | -103.14965 | 31496 ft | 415 kts | 258° |
| 2026-04-22 12:37 | 38.59024 | -103.22006 | 31495 ft | 416 kts | 257° |
| 2026-04-22 12:38 | 38.57330 | -103.29047 | 31488 ft | 417 kts | 257° |
| 2026-04-22 12:38 | 38.55615 | -103.36128 | 31483 ft | 418 kts | 257° |
| 2026-04-22 12:39 | 38.53040 | -103.46780 | 31483 ft | 418 kts | 258° |
| 2026-04-22 12:40 | 38.51346 | -103.53886 | 31483 ft | 418 kts | 258° |
| 2026-04-22 12:40 | 38.49645 | -103.60969 | 31483 ft | 419 kts | 257° |
| 2026-04-22 12:41 | 38.47916 | -103.68044 | 31483 ft | 419 kts | 257° |
| 2026-04-22 12:41 | 38.46176 | -103.75171 | 31484 ft | 420 kts | 257° |
| 2026-04-22 12:42 | 38.44444 | -103.82283 | 31485 ft | 421 kts | 257° |
| 2026-04-22 12:42 | 38.42703 | -103.89381 | 31485 ft | 421 kts | 257° |
| 2026-04-22 12:43 | 38.40955 | -103.96476 | 31487 ft | 421 kts | 257° |
| 2026-04-22 12:43 | 38.39187 | -104.03632 | 31490 ft | 421 kts | 257° |
| 2026-04-22 12:44 | 38.37433 | -104.10756 | 31499 ft | 421 kts | 257° |
| 2026-04-22 12:44 | 38.35685 | -104.17870 | 31501 ft | 421 kts | 256° |
| 2026-04-22 12:45 | 38.33923 | -104.24925 | 31501 ft | 421 kts | 257° |
| 2026-04-22 12:45 | 38.32155 | -104.32031 | 31501 ft | 420 kts | 257° |
| 2026-04-22 12:46 | 38.30399 | -104.39090 | 31501 ft | 420 kts | 256° |
| 2026-04-22 12:46 | 38.28193 | -104.45978 | 31502 ft | 425 kts | 248° |
| 2026-04-22 12:47 | 38.25487 | -104.52675 | 31501 ft | 425 kts | 248° |
| 2026-04-22 12:47 | 38.22858 | -104.59376 | 31502 ft | 424 kts | 248° |
| 2026-04-22 12:48 | 38.20209 | -104.66013 | 31501 ft | 424 kts | 248° |
| 2026-04-22 12:48 | 38.17543 | -104.72691 | 31501 ft | 425 kts | 248° |
| 2026-04-22 12:49 | 38.14854 | -104.79401 | 31501 ft | 425 kts | 248° |
| 2026-04-22 12:49 | 38.12175 | -104.86060 | 31502 ft | 425 kts | 248° |
| 2026-04-22 12:50 | 38.09469 | -104.92776 | 31502 ft | 426 kts | 248° |
| 2026-04-22 12:50 | 38.06777 | -104.99442 | 31501 ft | 426 kts | 247° |
| 2026-04-22 12:51 | 38.04075 | -105.06115 | 31501 ft | 427 kts | 247° |
| 2026-04-22 12:51 | 38.01361 | -105.12802 | 31502 ft | 427 kts | 247° |
| 2026-04-22 12:52 | 37.98630 | -105.19517 | 31560 ft | 426 kts | 247° |
| 2026-04-22 12:52 | 37.95928 | -105.26146 | 31620 ft | 425 kts | 247° |
| 2026-04-22 12:53 | 37.93216 | -105.32787 | 31681 ft | 425 kts | 247° |
| 2026-04-22 12:53 | 37.90489 | -105.39449 | 31720 ft | 424 kts | 247° |
| 2026-04-22 12:54 | 37.87798 | -105.46011 | 31721 ft | 425 kts | 247° |
| 2026-04-22 12:54 | 37.85082 | -105.52618 | 31720 ft | 425 kts | 247° |
| 2026-04-22 12:55 | 37.82346 | -105.59257 | 31720 ft | 425 kts | 247° |
| 2026-04-22 12:55 | 37.79628 | -105.65843 | 31721 ft | 425 kts | 246° |
| 2026-04-22 12:56 | 37.76883 | -105.72481 | 31721 ft | 426 kts | 246° |
| 2026-04-22 12:56 | 37.74124 | -105.79136 | 31721 ft | 427 kts | 246° |
| 2026-04-22 12:57 | 37.71375 | -105.85757 | 31721 ft | 427 kts | 246° |
| 2026-04-22 12:57 | 37.68607 | -105.92406 | 31721 ft | 427 kts | 246° |
| 2026-04-22 12:58 | 37.65840 | -105.99040 | 31721 ft | 427 kts | 246° |
| 2026-04-22 12:58 | 37.63069 | -106.05667 | 31721 ft | 428 kts | 246° |
| 2026-04-22 12:59 | 37.60312 | -106.12251 | 31721 ft | 428 kts | 246° |
| 2026-04-22 12:59 | 37.57535 | -106.18891 | 31721 ft | 427 kts | 246° |
| 2026-04-22 13:00 | 37.54767 | -106.25468 | 31721 ft | 427 kts | 246° |
| 2026-04-22 13:00 | 37.51983 | -106.32061 | 31721 ft | 427 kts | 246° |
| 2026-04-22 13:01 | 37.49226 | -106.38586 | 31736 ft | 427 kts | 246° |
| 2026-04-22 13:01 | 37.46444 | -106.45155 | 31753 ft | 427 kts | 246° |
| 2026-04-22 13:02 | 37.43665 | -106.51708 | 31771 ft | 426 kts | 246° |
| 2026-04-22 13:02 | 37.40868 | -106.58289 | 31785 ft | 426 kts | 246° |
| 2026-04-22 13:03 | 37.38073 | -106.64853 | 31785 ft | 426 kts | 246° |
| 2026-04-22 13:03 | 37.35289 | -106.71378 | 31785 ft | 427 kts | 246° |
| 2026-04-22 13:04 | 37.32502 | -106.77895 | 31785 ft | 427 kts | 246° |
| 2026-04-22 13:04 | 37.29676 | -106.84491 | 31785 ft | 428 kts | 245° |
| 2026-04-22 13:05 | 37.26852 | -106.91069 | 31785 ft | 428 kts | 245° |
| 2026-04-22 13:05 | 37.24017 | -106.97660 | 31785 ft | 429 kts | 245° |
| 2026-04-22 13:06 | 37.21186 | -107.04227 | 31785 ft | 429 kts | 245° |
| 2026-04-22 13:06 | 37.18346 | -107.10802 | 31785 ft | 429 kts | 245° |
| 2026-04-22 13:07 | 37.15510 | -107.17354 | 31785 ft | 430 kts | 245° |
| 2026-04-22 13:07 | 37.12646 | -107.23959 | 31785 ft | 430 kts | 245° |
| 2026-04-22 13:08 | 37.09771 | -107.30575 | 31781 ft | 430 kts | 245° |
| 2026-04-22 13:08 | 37.06929 | -107.37100 | 31763 ft | 429 kts | 245° |
| 2026-04-22 13:09 | 37.04076 | -107.43638 | 31746 ft | 428 kts | 245° |
| 2026-04-22 13:09 | 37.01231 | -107.50144 | 31728 ft | 424 kts | 245° |
| 2026-04-22 13:10 | 36.98408 | -107.56586 | 31721 ft | 418 kts | 245° |
| 2026-04-22 13:10 | 36.95625 | -107.62923 | 31721 ft | 413 kts | 245° |
| 2026-04-22 13:11 | 36.92887 | -107.69157 | 31720 ft | 411 kts | 244° |
| 2026-04-22 13:11 | 36.90151 | -107.75373 | 31720 ft | 410 kts | 244° |
| 2026-04-22 13:12 | 36.87421 | -107.81554 | 31716 ft | 409 kts | 244° |
| 2026-04-22 13:12 | 36.84666 | -107.87760 | 31706 ft | 408 kts | 244° |
| 2026-04-22 13:13 | 36.81918 | -107.93953 | 31693 ft | 407 kts | 244° |
| 2026-04-22 13:13 | 36.79189 | -108.00113 | 31677 ft | 406 kts | 245° |
| 2026-04-22 13:14 | 36.76471 | -108.06279 | 31675 ft | 405 kts | 246° |
| 2026-04-22 13:14 | 36.74420 | -108.12758 | 31676 ft | 399 kts | 258° |
| 2026-04-22 13:15 | 36.73161 | -108.19485 | 31676 ft | 398 kts | 259° |
| 2026-04-22 13:15 | 36.71892 | -108.26176 | 31675 ft | 398 kts | 258° |
| 2026-04-22 13:16 | 36.70614 | -108.32874 | 31675 ft | 397 kts | 259° |
| 2026-04-22 13:16 | 36.69347 | -108.39552 | 31674 ft | 397 kts | 259° |
| 2026-04-22 13:17 | 36.68103 | -108.46262 | 31676 ft | 396 kts | 259° |
| 2026-04-22 13:17 | 36.66892 | -108.52907 | 31675 ft | 395 kts | 259° |
| 2026-04-22 13:18 | 36.65660 | -108.59556 | 31675 ft | 395 kts | 259° |
| 2026-04-22 13:18 | 36.64413 | -108.66221 | 31675 ft | 395 kts | 258° |
| 2026-04-22 13:19 | 36.63152 | -108.72873 | 31675 ft | 395 kts | 258° |
| 2026-04-22 13:19 | 36.61872 | -108.79537 | 31675 ft | 396 kts | 258° |
| 2026-04-22 13:20 | 36.60603 | -108.86197 | 31674 ft | 396 kts | 259° |
| 2026-04-22 13:20 | 36.59357 | -108.92849 | 31675 ft | 396 kts | 258° |
| 2026-04-22 13:21 | 36.58091 | -108.99515 | 31679 ft | 396 kts | 258° |
| 2026-04-22 13:21 | 36.56820 | -109.06178 | 31691 ft | 396 kts | 258° |
| 2026-04-22 13:22 | 36.55545 | -109.12805 | 31706 ft | 396 kts | 257° |
| 2026-04-22 13:22 | 36.54253 | -109.19428 | 31724 ft | 396 kts | 257° |
| 2026-04-22 13:23 | 36.52944 | -109.26071 | 31731 ft | 397 kts | 257° |
| 2026-04-22 13:23 | 36.51639 | -109.32736 | 31735 ft | 397 kts | 257° |
| 2026-04-22 13:24 | 36.50335 | -109.39395 | 31740 ft | 397 kts | 257° |
| 2026-04-22 13:24 | 36.49051 | -109.46085 | 31748 ft | 398 kts | 257° |
| 2026-04-22 13:25 | 36.47746 | -109.52767 | 31757 ft | 398 kts | 257° |
| 2026-04-22 13:25 | 36.46431 | -109.59418 | 31758 ft | 398 kts | 257° |
| 2026-04-22 13:26 | 36.45129 | -109.66067 | 31757 ft | 398 kts | 257° |
| 2026-04-22 13:26 | 36.43811 | -109.72762 | 31744 ft | 399 kts | 257° |
| 2026-04-22 13:27 | 36.42487 | -109.79431 | 31723 ft | 400 kts | 257° |
| 2026-04-22 13:27 | 36.41141 | -109.86167 | 31708 ft | 401 kts | 257° |
| 2026-04-22 13:28 | 36.39805 | -109.92846 | 31699 ft | 401 kts | 257° |
| 2026-04-22 13:28 | 36.38467 | -109.99535 | 31708 ft | 401 kts | 257° |
| 2026-04-22 13:29 | 36.37123 | -110.06242 | 31717 ft | 401 kts | 257° |
| 2026-04-22 13:29 | 36.35768 | -110.12942 | 31728 ft | 400 kts | 256° |
| 2026-04-22 13:30 | 36.34411 | -110.19651 | 31719 ft | 400 kts | 257° |
| 2026-04-22 13:30 | 36.33065 | -110.26330 | 31680 ft | 401 kts | 257° |
| 2026-04-22 13:31 | 36.31710 | -110.33015 | 31636 ft | 402 kts | 256° |
| 2026-04-22 13:31 | 36.30322 | -110.39747 | 31595 ft | 402 kts | 257° |
| 2026-04-22 13:32 | 36.28947 | -110.46452 | 31591 ft | 402 kts | 257° |
| 2026-04-22 13:32 | 36.27581 | -110.53150 | 31590 ft | 401 kts | 257° |
| 2026-04-22 13:33 | 36.26201 | -110.59866 | 31583 ft | 401 kts | 257° |
| 2026-04-22 13:33 | 36.24818 | -110.66493 | 31575 ft | 401 kts | 256° |
| 2026-04-22 13:34 | 36.23424 | -110.73212 | 31574 ft | 401 kts | 256° |
| 2026-04-22 13:34 | 36.22048 | -110.79881 | 31575 ft | 401 kts | 256° |
| 2026-04-22 13:35 | 36.20663 | -110.86546 | 31574 ft | 401 kts | 256° |
| 2026-04-22 13:35 | 36.19252 | -110.93241 | 31574 ft | 401 kts | 256° |
| 2026-04-22 13:36 | 36.17856 | -110.99894 | 31574 ft | 401 kts | 255° |
| 2026-04-22 13:36 | 36.16447 | -111.06590 | 31574 ft | 401 kts | 254° |
| 2026-04-22 13:37 | 36.15041 | -111.13248 | 31575 ft | 402 kts | 253° |
| 2026-04-22 13:37 | 36.13624 | -111.19939 | 31580 ft | 402 kts | 253° |
| 2026-04-22 13:38 | 36.12254 | -111.26655 | 31592 ft | 403 kts | 257° |
| 2026-04-22 13:38 | 36.11258 | -111.36983 | 31617 ft | 404 kts | 261° |
| 2026-04-22 13:39 | 36.10602 | -111.43887 | 31651 ft | 404 kts | 261° |
| 2026-04-22 13:39 | 36.09964 | -111.50771 | 31681 ft | 403 kts | 261° |
| 2026-04-22 13:40 | 36.09321 | -111.57671 | 31709 ft | 403 kts | 261° |
| 2026-04-22 13:40 | 36.08682 | -111.64506 | 31721 ft | 403 kts | 261° |
| 2026-04-22 13:41 | 36.08033 | -111.71406 | 31721 ft | 404 kts | 261° |
| 2026-04-22 13:41 | 36.07339 | -111.78258 | 31720 ft | 404 kts | 258° |
| 2026-04-22 13:42 | 36.05834 | -111.84890 | 31722 ft | 401 kts | 247° |
| 2026-04-22 13:42 | 36.03795 | -111.91303 | 31721 ft | 402 kts | 248° |
| 2026-04-22 13:43 | 36.01790 | -111.97770 | 31720 ft | 402 kts | 248° |
| 2026-04-22 13:43 | 35.99750 | -112.04199 | 31721 ft | 402 kts | 247° |
| 2026-04-22 13:44 | 35.97713 | -112.10580 | 31739 ft | 402 kts | 247° |
| 2026-04-22 13:44 | 35.95645 | -112.17022 | 31739 ft | 402 kts | 247° |
| 2026-04-22 13:45 | 35.93586 | -112.23424 | 31739 ft | 402 kts | 247° |
| 2026-04-22 13:45 | 35.91533 | -112.29787 | 31739 ft | 402 kts | 247° |
| 2026-04-22 13:46 | 35.89469 | -112.36163 | 31739 ft | 402 kts | 247° |
| 2026-04-22 13:46 | 35.87381 | -112.42598 | 31739 ft | 402 kts | 247° |
| 2026-04-22 13:47 | 35.85304 | -112.48985 | 31739 ft | 403 kts | 247° |
| 2026-04-22 13:47 | 35.83218 | -112.55384 | 31739 ft | 403 kts | 247° |
| 2026-04-22 13:48 | 35.81136 | -112.61759 | 31739 ft | 403 kts | 247° |
| 2026-04-22 13:48 | 35.79041 | -112.68161 | 31739 ft | 403 kts | 246° |
| 2026-04-22 13:49 | 35.76940 | -112.74567 | 31739 ft | 403 kts | 246° |
| 2026-04-22 13:49 | 35.74834 | -112.80972 | 31739 ft | 404 kts | 246° |
| 2026-04-22 13:50 | 35.72725 | -112.87374 | 31742 ft | 404 kts | 246° |
| 2026-04-22 13:50 | 35.70619 | -112.93755 | 31747 ft | 406 kts | 246° |
| 2026-04-22 13:51 | 35.68489 | -113.00193 | 31753 ft | 407 kts | 246° |
| 2026-04-22 13:51 | 35.66336 | -113.06686 | 31750 ft | 410 kts | 246° |
| 2026-04-22 13:52 | 35.64382 | -113.12566 | 31726 ft | 412 kts | 246° |
| 2026-04-22 13:52 | 35.62209 | -113.19093 | 31698 ft | 414 kts | 246° |
| 2026-04-22 13:53 | 35.60029 | -113.25627 | 31670 ft | 415 kts | 246° |
| 2026-04-22 13:53 | 35.57843 | -113.32165 | 31657 ft | 415 kts | 246° |
| 2026-04-22 13:54 | 35.55637 | -113.38746 | 31657 ft | 415 kts | 246° |
| 2026-04-22 13:54 | 35.53450 | -113.45259 | 31656 ft | 415 kts | 246° |
| 2026-04-22 13:55 | 35.51248 | -113.51801 | 31657 ft | 415 kts | 246° |
| 2026-04-22 13:55 | 35.49050 | -113.58319 | 31657 ft | 415 kts | 246° |
| 2026-04-22 13:56 | 35.46839 | -113.64860 | 31657 ft | 415 kts | 246° |
| 2026-04-22 13:56 | 35.44644 | -113.71336 | 31657 ft | 415 kts | 246° |
| 2026-04-22 13:57 | 35.42432 | -113.77855 | 31657 ft | 415 kts | 246° |
| 2026-04-22 13:57 | 35.40214 | -113.84373 | 31657 ft | 415 kts | 246° |
| 2026-04-22 13:58 | 35.37993 | -113.90888 | 31657 ft | 415 kts | 246° |
| 2026-04-22 13:58 | 35.35762 | -113.97417 | 31657 ft | 415 kts | 246° |
| 2026-04-22 13:59 | 35.33545 | -114.03891 | 31657 ft | 415 kts | 246° |
| 2026-04-22 13:59 | 35.31303 | -114.10428 | 31657 ft | 415 kts | 246° |
| 2026-04-22 14:00 | 35.29081 | -114.16892 | 31657 ft | 415 kts | 246° |
| 2026-04-22 14:00 | 35.26875 | -114.23296 | 31657 ft | 415 kts | 246° |
| 2026-04-22 14:01 | 35.24595 | -114.29899 | 31647 ft | 415 kts | 246° |
| 2026-04-22 14:01 | 35.22339 | -114.36421 | 31635 ft | 415 kts | 246° |
| 2026-04-22 14:02 | 35.20101 | -114.42874 | 31622 ft | 415 kts | 246° |
| 2026-04-22 14:02 | 35.17838 | -114.49386 | 31611 ft | 415 kts | 246° |
| 2026-04-22 14:03 | 35.15586 | -114.55856 | 31611 ft | 415 kts | 246° |
| 2026-04-22 14:03 | 35.13312 | -114.62371 | 31611 ft | 415 kts | 246° |
| 2026-04-22 14:04 | 35.11063 | -114.68845 | 31611 ft | 415 kts | 245° |
| 2026-04-22 14:04 | 35.08813 | -114.75320 | 31611 ft | 415 kts | 245° |
| 2026-04-22 14:05 | 35.06558 | -114.81792 | 31611 ft | 415 kts | 245° |
| 2026-04-22 14:06 | 35.03180 | -114.91499 | 31611 ft | 415 kts | 246° |
| 2026-04-22 14:06 | 35.01165 | -114.98034 | 31612 ft | 411 kts | 248° |
| 2026-04-22 14:07 | 34.99167 | -115.04548 | 31616 ft | 410 kts | 248° |
| 2026-04-22 14:07 | 34.97140 | -115.11095 | 31457 ft | 413 kts | 248° |
| 2026-04-22 14:07 | 34.96131 | -115.14349 | 31125 ft | 411 kts | 247° |
| 2026-04-22 14:08 | 34.95121 | -115.17602 | 30796 ft | 407 kts | 247° |
| 2026-04-22 14:08 | 34.94134 | -115.20776 | 30476 ft | 406 kts | 247° |
| 2026-04-22 14:08 | 34.93126 | -115.24013 | 30148 ft | 404 kts | 247° |
| 2026-04-22 14:08 | 34.92136 | -115.27190 | 29824 ft | 402 kts | 247° |
| 2026-04-22 14:09 | 34.91149 | -115.30351 | 29499 ft | 399 kts | 246° |
| 2026-04-22 14:09 | 34.90173 | -115.33472 | 29176 ft | 396 kts | 246° |
| 2026-04-22 14:09 | 34.89193 | -115.36606 | 28849 ft | 393 kts | 246° |
| 2026-04-22 14:09 | 34.88224 | -115.39699 | 28524 ft | 391 kts | 246° |
| 2026-04-22 14:10 | 34.87253 | -115.42792 | 28197 ft | 389 kts | 246° |
| 2026-04-22 14:10 | 34.86294 | -115.45845 | 27873 ft | 388 kts | 246° |
| 2026-04-22 14:10 | 34.85332 | -115.48904 | 27548 ft | 387 kts | 246° |
| 2026-04-22 14:10 | 34.84369 | -115.51968 | 27221 ft | 386 kts | 246° |
| 2026-04-22 14:11 | 34.83409 | -115.55014 | 26895 ft | 385 kts | 246° |
| 2026-04-22 14:11 | 34.82451 | -115.58054 | 26568 ft | 383 kts | 246° |
| 2026-04-22 14:11 | 34.81491 | -115.61093 | 26240 ft | 382 kts | 246° |
| 2026-04-22 14:11 | 34.80545 | -115.64087 | 25916 ft | 381 kts | 246° |
| 2026-04-22 14:12 | 34.79608 | -115.67050 | 25594 ft | 379 kts | 245° |
| 2026-04-22 14:12 | 34.78650 | -115.70078 | 25264 ft | 377 kts | 245° |
| 2026-04-22 14:12 | 34.77724 | -115.73001 | 24793 ft | 374 kts | 245° |
| 2026-04-22 14:12 | 34.76788 | -115.75957 | 24242 ft | 367 kts | 245° |
| 2026-04-22 14:13 | 34.75887 | -115.78797 | 23707 ft | 361 kts | 245° |
| 2026-04-22 14:13 | 34.75004 | -115.81580 | 23154 ft | 346 kts | 245° |
| 2026-04-22 14:13 | 34.74147 | -115.84280 | 22614 ft | 335 kts | 245° |
| 2026-04-22 14:13 | 34.73307 | -115.86910 | 22081 ft | 337 kts | 245° |
| 2026-04-22 14:14 | 34.72467 | -115.89537 | 21547 ft | 337 kts | 245° |
| 2026-04-22 14:14 | 34.71623 | -115.92185 | 21005 ft | 335 kts | 245° |
| 2026-04-22 14:14 | 34.70785 | -115.94809 | 20465 ft | 333 kts | 245° |
| 2026-04-22 14:14 | 34.69946 | -115.97434 | 19922 ft | 331 kts | 245° |
| 2026-04-22 14:15 | 34.69125 | -116.00003 | 19386 ft | 329 kts | 245° |
| 2026-04-22 14:15 | 34.68290 | -116.02609 | 18840 ft | 327 kts | 245° |
| 2026-04-22 14:15 | 34.67477 | -116.05148 | 18304 ft | 325 kts | 245° |
| 2026-04-22 14:15 | 34.66651 | -116.07723 | 17757 ft | 323 kts | 245° |
| 2026-04-22 14:16 | 34.65847 | -116.10227 | 17221 ft | 321 kts | 246° |
| 2026-04-22 14:16 | 34.65039 | -116.12746 | 16679 ft | 319 kts | 246° |
| 2026-04-22 14:16 | 34.64232 | -116.15257 | 16135 ft | 317 kts | 246° |
| 2026-04-22 14:16 | 34.63440 | -116.17717 | 15598 ft | 315 kts | 246° |
| 2026-04-22 14:17 | 34.62643 | -116.20192 | 15054 ft | 313 kts | 246° |
| 2026-04-22 14:17 | 34.61853 | -116.22643 | 14511 ft | 310 kts | 246° |
| 2026-04-22 14:17 | 34.61078 | -116.25049 | 13975 ft | 308 kts | 246° |
| 2026-04-22 14:17 | 34.60301 | -116.27456 | 13434 ft | 306 kts | 246° |
| 2026-04-22 14:18 | 34.59519 | -116.29877 | 12886 ft | 304 kts | 247° |
| 2026-04-22 14:18 | 34.58760 | -116.32226 | 12351 ft | 301 kts | 247° |
| 2026-04-22 14:18 | 34.57993 | -116.34598 | 11805 ft | 299 kts | 247° |
| 2026-04-22 14:18 | 34.57233 | -116.36943 | 11261 ft | 296 kts | 247° |
| 2026-04-22 14:19 | 34.56488 | -116.39243 | 10721 ft | 292 kts | 246° |
| 2026-04-22 14:19 | 34.55751 | -116.41515 | 10180 ft | 288 kts | 246° |
| 2026-04-22 14:19 | 34.55020 | -116.43771 | 9636 ft | 284 kts | 246° |
| 2026-04-22 14:19 | 34.54297 | -116.45995 | 9092 ft | 281 kts | 246° |
| 2026-04-22 14:20 | 34.52896 | -116.50307 | 8016 ft | 273 kts | 246° |
| 2026-04-22 14:20 | 34.52207 | -116.52424 | 7477 ft | 270 kts | 246° |
| 2026-04-22 14:20 | 34.51522 | -116.54527 | 6933 ft | 265 kts | 247° |
| 2026-04-22 14:21 | 34.50176 | -116.58643 | 5848 ft | 259 kts | 247° |
| 2026-04-22 14:21 | 34.49530 | -116.60635 | 5583 ft | 250 kts | 247° |
| 2026-04-22 14:22 | 34.48248 | -116.64561 | 6243 ft | 251 kts | 246° |
| 2026-04-22 14:22 | 34.47607 | -116.66516 | 6943 ft | 248 kts | 245° |
| 2026-04-22 14:22 | 34.46358 | -116.70344 | 8336 ft | 242 kts | 245° |
| 2026-04-22 14:23 | 34.45746 | -116.72209 | 9032 ft | 239 kts | 245° |
| 2026-04-22 14:23 | 34.45138 | -116.74062 | 9736 ft | 235 kts | 245° |
| 2026-04-22 14:23 | 34.44550 | -116.75856 | 10429 ft | 230 kts | 245° |
| 2026-04-22 14:23 | 34.43975 | -116.77609 | 11122 ft | 225 kts | 245° |
| 2026-04-22 14:24 | 34.43404 | -116.79349 | 11829 ft | 218 kts | 245° |
| 2026-04-22 14:24 | 34.42854 | -116.81023 | 12532 ft | 211 kts | 245° |
| 2026-04-22 14:24 | 34.42330 | -116.82618 | 13229 ft | 201 kts | 245° |
| 2026-04-22 14:24 | 34.41825 | -116.84152 | 13893 ft | 199 kts | 244° |
| 2026-04-22 14:25 | 34.41294 | -116.85758 | 14109 ft | 216 kts | 245° |
| 2026-04-22 14:25 | 34.40704 | -116.87547 | 14122 ft | 241 kts | 245° |
| 2026-04-22 14:25 | 34.40057 | -116.89510 | 14122 ft | 262 kts | 245° |
| 2026-04-22 14:25 | 34.39355 | -116.91640 | 14128 ft | 280 kts | 245° |
| 2026-04-22 14:26 | 34.38611 | -116.93896 | 14136 ft | 295 kts | 245° |
| 2026-04-22 14:26 | 34.37839 | -116.96237 | 14142 ft | 307 kts | 245° |
| 2026-04-22 14:26 | 34.37036 | -116.98669 | 14148 ft | 311 kts | 245° |
| 2026-04-22 14:26 | 34.36228 | -117.01118 | 14155 ft | 312 kts | 245° |
| 2026-04-22 14:27 | 34.35419 | -117.03566 | 14161 ft | 313 kts | 245° |
| 2026-04-22 14:27 | 34.34607 | -117.06020 | 14166 ft | 315 kts | 245° |
| 2026-04-22 14:27 | 34.33800 | -117.08455 | 14170 ft | 316 kts | 245° |
| 2026-04-22 14:27 | 34.32971 | -117.10953 | 14173 ft | 317 kts | 244° |
| 2026-04-22 14:28 | 34.32149 | -117.13429 | 14175 ft | 318 kts | 244° |
| 2026-04-22 14:28 | 34.31327 | -117.15904 | 14174 ft | 318 kts | 244° |
| 2026-04-22 14:28 | 34.30494 | -117.18413 | 14174 ft | 317 kts | 244° |
| 2026-04-22 14:28 | 34.29754 | -117.20637 | 14174 ft | 317 kts | 244° |
| 2026-04-22 14:29 | 34.29122 | -117.22533 | 14175 ft | 317 kts | 244° |
| 2026-04-22 14:29 | 34.27417 | -117.27648 | 14177 ft | 317 kts | 244° |
| 2026-04-22 14:29 | 34.26696 | -117.29809 | 14178 ft | 317 kts | 244° |
| 2026-04-22 14:30 | 34.24686 | -117.35825 | 14182 ft | 317 kts | 244° |
| 2026-04-22 14:30 | 34.23920 | -117.38116 | 14183 ft | 317 kts | 244° |
| 2026-04-22 14:31 | 34.23158 | -117.40391 | 14183 ft | 317 kts | 244° |
| 2026-04-22 14:31 | 34.22316 | -117.42905 | 14182 ft | 317 kts | 244° |
| 2026-04-22 14:31 | 34.20407 | -117.48593 | 14182 ft | 317 kts | 244° |
| 2026-04-22 14:32 | 34.19699 | -117.50701 | 14181 ft | 318 kts | 244° |
| 2026-04-22 14:32 | 34.18292 | -117.54884 | 14180 ft | 318 kts | 244° |
| 2026-04-22 14:32 | 34.17449 | -117.57388 | 14179 ft | 318 kts | 244° |
| 2026-04-22 14:33 | 34.15786 | -117.62322 | 14178 ft | 318 kts | 244° |
| 2026-04-22 14:33 | 34.14903 | -117.64941 | 14178 ft | 318 kts | 244° |
| 2026-04-22 14:34 | 34.13279 | -117.69744 | 14179 ft | 317 kts | 244° |
| 2026-04-22 14:34 | 34.12300 | -117.72640 | 14179 ft | 317 kts | 244° |
| 2026-04-22 14:34 | 34.11429 | -117.75214 | 14180 ft | 317 kts | 244° |
| 2026-04-22 14:34 | 34.10543 | -117.77827 | 14180 ft | 317 kts | 244° |
| 2026-04-22 14:35 | 34.09684 | -117.80359 | 14100 ft | 319 kts | 244° |
| 2026-04-22 14:35 | 34.08872 | -117.82750 | 13874 ft | 323 kts | 244° |
| 2026-04-22 14:35 | 34.08053 | -117.85171 | 14641 ft | 296 kts | 244° |
| 2026-04-22 14:35 | 34.07359 | -117.87238 | 15397 ft | 252 kts | 243° |
| 2026-04-22 14:36 | 34.06714 | -117.89123 | 15257 ft | 248 kts | 242° |
| 2026-04-22 14:36 | 34.06085 | -117.90953 | 15035 ft | 249 kts | 243° |
| 2026-04-22 14:36 | 34.05402 | -117.92946 | 14172 ft | 271 kts | 243° |
| 2026-04-22 14:36 | 34.04667 | -117.95084 | 13199 ft | 300 kts | 244° |
| 2026-04-22 14:37 | 34.03876 | -117.97383 | 10068 ft | 393 kts | 247° |
| 2026-04-22 14:37 | 34.02978 | -118.00372 | 8850 ft | 393 kts | 250° |
| 2026-04-22 14:37 | 34.02122 | -118.02974 | 9215 ft | 336 kts | 245° |
| 2026-04-22 14:37 | 34.01201 | -118.05472 | 9557 ft | 304 kts | 244° |
| 2026-04-22 14:38 | 34.00407 | -118.07684 | 8862 ft | 298 kts | 246° |
| 2026-04-22 14:38 | 33.99023 | -118.11659 | 6892 ft | 270 kts | 248° |
| 2026-04-22 14:38 | 33.98348 | -118.13610 | 5858 ft | 261 kts | 248° |
| 2026-04-22 14:39 | 33.97629 | -118.15719 | 5183 ft | 234 kts | 252° |
| 2026-04-22 14:39 | 33.97331 | -118.17439 | 5185 ft | 226 kts | 265° |
| 2026-04-22 14:39 | 33.97174 | -118.19088 | 5168 ft | 199 kts | 265° |
| 2026-04-22 14:40 | 33.96836 | -118.22531 | 5177 ft | 169 kts | 266° |
| 2026-04-22 14:40 | 33.96586 | -118.25108 | 5179 ft | 167 kts | 266° |
| 2026-04-22 14:41 | 33.96451 | -118.26502 | 5178 ft | 168 kts | 266° |
| 2026-04-22 14:41 | 33.96316 | -118.27884 | 5018 ft | 168 kts | 266° |
| 2026-04-22 14:41 | 33.96184 | -118.29256 | 4653 ft | 167 kts | 266° |
| 2026-04-22 14:41 | 33.96052 | -118.30623 | 4050 ft | 169 kts | 266° |
| 2026-04-22 14:42 | 33.95921 | -118.31955 | 3698 ft | 167 kts | 266° |
| 2026-04-22 14:42 | 33.95797 | -118.33351 | 2970 ft | 173 kts | 265° |
| 2026-04-22 14:42 | 33.95611 | -118.34778 | 2194 ft | 178 kts | 263° |
| 2026-04-22 14:42 | 33.95484 | -118.36234 | 1530 ft | 173 kts | 269° |
| 2026-04-22 14:43 | 33.95478 | -118.36460 | 1425 ft | 173 kts | 269° |
| 2026-04-22 14:43 | 33.95459 | -118.36914 | 1210 ft | 172 kts | 267° |
| 2026-04-22 14:43 | 33.95404 | -118.38124 | 652 ft | 170 kts | 269° |
| 2026-04-22 14:43 | 33.95327 | -118.39538 | 323 ft | 152 kts | 264° |
| 2026-04-22 14:44 | 33.95144 | -118.40898 | 126 ft | 146 kts | 265° |
| 2026-04-22 14:44 | 33.95025 | -118.41978 | 121 ft | 82 kts | 263° |
| 2026-04-22 14:44 | 33.94998 | -118.42252 | 119 ft | 17 kts | 263° |
| 2026-04-22 14:44 | 33.94977 | -118.42395 | 118 ft | 15 kts | 256° |
| 2026-04-22 14:45 | 33.94947 | -118.42509 | 118 ft | 14 kts | 246° |
| 2026-04-22 14:45 | 33.94897 | -118.42612 | 116 ft | 14 kts | 234° |
| 2026-04-22 14:45 | 33.94827 | -118.42699 | 114 ft | 14 kts | 218° |
| 2026-04-22 14:45 | 33.94718 | -118.42769 | 111 ft | 13 kts | 191° |
| 2026-04-22 14:46 | 33.94687 | -118.42774 | 111 ft | 0 kts | 184° |
| 2026-04-22 14:46 | 33.94685 | -118.42774 | 111 ft | 0 kts | 184° |
| 2026-04-22 14:46 | 33.94683 | -118.42775 | 111 ft | 0 kts | 184° |
| 2026-04-22 14:46 | 33.94680 | -118.42775 | 111 ft | 0 kts | 184° |
| 2026-04-22 14:47 | 33.94677 | -118.42775 | 111 ft | 0 kts | 184° |
| 2026-04-22 14:47 | 33.94674 | -118.42775 | 111 ft | 0 kts | 184° |
| 2026-04-22 14:47 | 33.94671 | -118.42776 | 111 ft | 0 kts | 184° |
| 2026-04-22 14:47 | 33.94669 | -118.42776 | 111 ft | 0 kts | 183° |
| 2026-04-22 14:48 | 33.94665 | -118.42776 | 111 ft | 0 kts | 183° |
| 2026-04-22 14:48 | 33.94660 | -118.42776 | 111 ft | 0 kts | 180° |
| 2026-04-22 14:48 | 33.94654 | -118.42776 | 111 ft | 1 kts | 176° |
| 2026-04-22 14:48 | 33.94651 | -118.42776 | 111 ft | 0 kts | 176° |
| 2026-04-22 14:52 | 33.94638 | -118.42761 | 111 ft | 9 kts | 117° |
| 2026-04-22 14:53 | 33.94641 | -118.42643 | 111 ft | 15 kts | 83° |
| 2026-04-22 14:53 | 33.94654 | -118.42517 | 114 ft | 13 kts | 83° |
| 2026-04-22 14:53 | 33.94660 | -118.42461 | 115 ft | 2 kts | 83° |
| 2026-04-22 14:53 | 33.94664 | -118.42429 | 116 ft | 4 kts | 83° |
| 2026-04-22 14:54 | 33.94669 | -118.42385 | 117 ft | 6 kts | 83° |
| 2026-04-22 14:54 | 33.94674 | -118.42326 | 118 ft | 8 kts | 83° |
| 2026-04-22 14:54 | 33.94682 | -118.42244 | 118 ft | 11 kts | 83° |
| 2026-04-22 14:54 | 33.94693 | -118.42133 | 119 ft | 14 kts | 83° |
| 2026-04-22 14:55 | 33.94706 | -118.42011 | 121 ft | 14 kts | 83° |
| 2026-04-22 14:55 | 33.94711 | -118.41962 | 121 ft | 7 kts | 83° |
| 2026-04-22 14:55 | 33.94719 | -118.41889 | 121 ft | 10 kts | 83° |
| 2026-04-22 14:55 | 33.94729 | -118.41788 | 121 ft | 14 kts | 83° |
| 2026-04-22 14:56 | 33.94743 | -118.41660 | 121 ft | 17 kts | 82° |
| 2026-04-22 14:56 | 33.94759 | -118.41522 | 122 ft | 5 kts | 82° |
| 2026-04-22 14:56 | 33.94761 | -118.41470 | 123 ft | 7 kts | 87° |
| 2026-04-22 14:56 | 33.94764 | -118.41392 | 123 ft | 11 kts | 87° |
| 2026-04-22 14:57 | 33.94786 | -118.41300 | 124 ft | 11 kts | 76° |
| 2026-04-22 14:57 | 33.94804 | -118.41202 | 124 ft | 13 kts | 78° |
| 2026-04-22 14:57 | 33.94820 | -118.41079 | 124 ft | 15 kts | 86° |
| 2026-04-22 14:57 | 33.94830 | -118.40944 | 124 ft | 18 kts | 85° |
| 2026-04-22 14:58 | 33.94800 | -118.40885 | 124 ft | 8 kts | 157° |
| 2026-04-22 14:58 | 33.94762 | -118.40828 | 124 ft | 10 kts | 84° |
| 2026-04-22 14:58 | 33.94767 | -118.40743 | 123 ft | 8 kts | 82° |
| 2026-04-22 14:58 | 33.94777 | -118.40653 | 121 ft | 12 kts | 83° |
| 2026-04-22 14:59 | 33.94729 | -118.40585 | 121 ft | 13 kts | 181° |
| 2026-04-22 14:59 | 33.94691 | -118.40604 | 121 ft | 0 kts | 237° |
| 2026-04-22 14:59 | 33.94685 | -118.40622 | 121 ft | 4 kts | 250° |
| 2026-04-22 14:59 | 33.94677 | -118.40650 | 121 ft | 2 kts | 254° |
| 2026-04-22 15:00 | 33.94677 | -118.40653 | 121 ft | 0 kts | 255° |